Time;durP1;ratioP1;P1;durP2;ratioP2;P2;SDS_P1;SDS_P2;PMS_P1;PMS_P2;Temp;Humidity;BMP_temperature;BMP_pressure;BME280_temperature;BME280_humidity;BME280_pressure;Samples;Min_cycle;Max_cycle;Signal;HPM_P1;HPM_P2
2023/02/13 00:01:07;;;;;;;10.10;6.47;;;;;;;10.88;66.33;102502.03;10175581;29;20491;-58
2023/02/13 00:06:09;;;;;;;10.85;6.00;;;;;;;10.94;66.34;102503.38;10173860;29;20107;-58
2023/02/13 00:11:10;;;;;;;8.95;5.10;;;;;;;10.93;66.13;102492.72;10176971;29;20526;-59
2023/02/13 00:16:12;;;;;;;9.35;5.90;;;;;;;10.96;65.89;102495.16;10173380;29;20040;-59
2023/02/13 00:21:14;;;;;;;12.18;6.50;;;;;;;10.97;66.13;102492.34;10177008;29;20424;-59
2023/02/13 00:26:16;;;;;;;11.00;6.53;;;;;;;10.96;66.18;102485.25;10175579;29;20680;-57
2023/02/13 00:31:20;;;;;;;10.70;6.13;;;;;;;10.97;66.05;102483.41;10174901;29;20099;-58
2023/02/13 00:36:22;;;;;;;9.05;5.70;;;;;;;10.96;66.17;102479.00;10170823;29;20111;-57
2023/02/13 00:41:24;;;;;;;11.38;6.40;;;;;;;10.93;65.78;102485.50;10176138;29;20044;-58
2023/02/13 00:46:25;;;;;;;9.70;5.85;;;;;;;10.91;65.83;102479.38;10186601;29;20064;-58
2023/02/13 00:51:27;;;;;;;8.75;6.03;;;;;;;10.91;65.67;102480.22;10184108;29;20056;-57
2023/02/13 00:56:28;;;;;;;7.03;4.68;;;;;;;10.92;65.67;102478.44;10178121;29;20060;-58
2023/02/13 01:01:30;;;;;;;11.30;6.55;;;;;;;10.91;65.86;102479.38;10183769;29;20075;-58
2023/02/13 01:06:31;;;;;;;13.00;6.68;;;;;;;10.92;65.58;102475.72;10180139;29;20114;-58
2023/02/13 01:11:32;;;;;;;9.63;6.05;;;;;;;10.88;65.86;102480.50;10182891;29;20733;-58
2023/02/13 01:16:34;;;;;;;9.73;6.25;;;;;;;10.88;65.75;102480.50;10179538;29;20505;-61
2023/02/13 01:21:35;;;;;;;10.35;6.07;;;;;;;10.85;65.69;102472.66;10177519;29;20067;-58
2023/02/13 01:26:37;;;;;;;10.45;5.75;;;;;;;10.86;65.40;102478.91;10182316;29;20063;-58
2023/02/13 01:31:38;;;;;;;12.80;6.97;;;;;;;10.79;65.85;102480.41;10180175;29;20212;-59
2023/02/13 01:36:40;;;;;;;15.52;7.35;;;;;;;10.79;65.53;102477.72;10179987;29;20051;-58
2023/02/13 01:41:41;;;;;;;16.23;7.38;;;;;;;10.78;65.61;102474.16;10298164;23;20061;-89
2023/02/13 01:46:43;;;;;;;13.18;6.82;;;;;;;10.80;65.21;102471.31;10274478;28;20054;-89
2023/02/13 01:51:47;;;;;;;11.40;6.70;;;;;;;10.80;65.32;102458.75;10282719;28;20043;-90
2023/02/13 01:56:54;;;;;;;11.68;6.32;;;;;;;10.76;65.34;102462.66;10247832;28;20055;-89
2023/02/13 02:01:57;;;;;;;12.57;7.00;;;;;;;10.76;65.22;102456.41;10284112;28;20054;-91
2023/02/13 02:07:17;;;;;;;13.50;6.85;;;;;;;10.75;65.22;102454.72;10240667;28;20062;-91
2023/02/13 02:12:28;;;;;;;12.75;7.53;;;;;;;10.75;65.28;102462.81;10244587;28;20062;-90
2023/02/13 02:17:29;;;;;;;12.68;6.90;;;;;;;10.75;65.28;102458.25;10259698;28;20047;-89
2023/02/13 02:23:09;;;;;;;13.02;7.50;;;;;;;10.67;65.16;102458.03;10245906;28;20040;-88
2023/02/13 02:28:25;;;;;;;14.10;7.53;;;;;;;10.56;65.21;102442.75;10200554;28;20047;-88
2023/02/13 02:33:48;;;;;;;;;;;;;;;10.37;65.16;102446.09;10246363;28;20625;-90
2023/02/13 02:38:59;;;;;;;18.17;9.23;;;;;;;10.17;65.07;102450.34;10254378;28;19933;-88
2023/02/13 02:44:16;;;;;;;16.83;8.82;;;;;;;10.01;64.98;102452.50;10251556;28;20055;-88
2023/02/13 02:55:06;;;;;;;15.95;9.43;;;;;;;9.61;65.52;102452.91;10256834;28;20042;-88
2023/02/13 03:33:22;;;;;;;17.85;8.10;;;;;;;8.52;66.40;102464.53;10266197;28;20039;-91
2023/02/13 03:38:42;;;;;;;16.95;9.15;;;;;;;8.33;66.59;102457.78;10253553;28;20067;-91
2023/02/13 03:43:57;;;;;;;16.85;9.02;;;;;;;8.20;66.64;102464.13;10258227;28;20118;-89
2023/02/13 04:00:10;;;;;;;18.80;8.55;;;;;;;7.75;67.18;102464.53;10270580;28;20074;-91
2023/02/13 04:05:19;;;;;;;22.58;8.85;;;;;;;7.59;67.18;102470.06;10258090;28;20111;-90
2023/02/13 04:10:23;;;;;;;19.63;9.85;;;;;;;7.46;67.50;102477.22;10246193;28;20047;-89
2023/02/13 04:15:32;;;;;;;45.72;24.40;;;;;;;7.35;66.98;102476.13;10235646;28;20071;-90
2023/02/13 04:20:34;;;;;;;32.53;18.95;;;;;;;7.25;67.62;102469.66;10231130;28;20059;-89
2023/02/13 04:25:39;;;;;;;26.00;11.68;;;;;;;7.12;67.59;102474.09;10239940;28;20755;-89
2023/02/13 04:30:42;;;;;;;21.48;11.88;;;;;;;7.01;67.03;102474.81;10255104;28;20047;-91
2023/02/13 04:35:43;;;;;;;23.35;11.90;;;;;;;6.81;68.31;102484.09;10266499;28;20051;-89
2023/02/13 04:40:46;;;;;;;18.88;9.30;;;;;;;6.69;68.33;102485.75;10255865;28;20198;-89
2023/02/13 04:45:48;;;;;;;21.17;8.95;;;;;;;6.64;67.99;102481.69;10254202;28;20048;-89
2023/02/13 04:50:50;;;;;;;21.92;9.00;;;;;;;6.55;67.97;102473.25;10250990;28;20035;-91
2023/02/13 04:55:52;;;;;;;22.42;10.80;;;;;;;6.45;68.30;102468.63;10251848;28;20056;-90
2023/02/13 05:00:53;;;;;;;19.63;9.75;;;;;;;6.37;68.07;102477.09;10235806;28;20126;-91
2023/02/13 05:05:55;;;;;;;21.13;9.73;;;;;;;6.28;68.13;102475.88;10257121;28;20047;-90
2023/02/13 05:10:57;;;;;;;25.10;11.25;;;;;;;6.19;68.63;102481.78;10237824;28;20039;-90
2023/02/13 05:16:00;;;;;;;19.98;9.57;;;;;;;6.12;68.66;102481.31;10240325;28;20098;-90
2023/02/13 05:26:23;;;;;;;21.80;9.43;;;;;;;6.00;68.15;102484.72;10245629;28;20054;-91
2023/02/13 05:31:25;;;;;;;23.92;9.90;;;;;;;5.95;68.35;102487.66;10272862;28;20062;-90
2023/02/13 05:36:30;;;;;;;23.90;10.63;;;;;;;5.89;69.06;102488.00;10235187;28;20055;-91
2023/02/13 05:41:31;;;;;;;24.60;11.25;;;;;;;5.86;69.08;102482.00;10238442;28;20183;-89
2023/02/13 05:46:33;;;;;;;22.02;9.80;;;;;;;5.82;68.87;102477.78;10249473;28;20047;-89
2023/02/13 05:51:35;;;;;;;23.63;10.60;;;;;;;5.77;68.52;102486.09;10257372;28;20079;-88
2023/02/13 05:56:37;;;;;;;22.50;10.18;;;;;;;5.66;68.65;102493.84;10254934;28;20031;-90
2023/02/13 06:01:38;;;;;;;20.42;10.85;;;;;;;5.62;69.12;102482.50;10255992;28;20096;-89
2023/02/13 06:06:40;;;;;;;23.60;10.20;;;;;;;5.59;69.10;102485.38;10255044;28;20039;-90
2023/02/13 06:11:42;;;;;;;22.52;10.48;;;;;;;5.51;68.72;102484.94;10240270;28;20047;-90
2023/02/13 06:16:45;;;;;;;22.10;9.50;;;;;;;5.50;68.57;102477.91;10233370;28;20048;-89
2023/02/13 06:21:48;;;;;;;21.80;10.23;;;;;;;5.44;69.16;102486.25;10255359;28;20457;-89
2023/02/13 06:26:49;;;;;;;19.77;10.10;;;;;;;5.38;68.95;102483.97;10259392;28;20099;-90
2023/02/13 06:31:51;;;;;;;20.77;9.57;;;;;;;5.30;69.17;102479.91;10239873;28;20102;-89
2023/02/13 06:36:53;;;;;;;21.30;9.30;;;;;;;5.20;68.91;102478.75;10238271;28;20055;-91
2023/02/13 06:41:54;;;;;;;24.92;10.90;;;;;;;5.20;68.69;102491.22;10258888;28;20051;-91
2023/02/13 06:46:58;;;;;;;24.58;11.23;;;;;;;5.21;69.20;102477.78;10255407;28;20047;-91
2023/02/13 06:52:02;;;;;;;25.90;11.40;;;;;;;5.18;68.79;102487.78;10262454;28;20075;-91
2023/02/13 06:57:04;;;;;;;21.80;10.13;;;;;;;5.18;68.92;102490.44;10232711;28;20053;-91
2023/02/13 07:02:10;;;;;;;27.27;10.48;;;;;;;5.14;69.00;102495.09;10254562;28;20090;-90
2023/02/13 07:07:11;;;;;;;29.00;13.48;;;;;;;5.14;68.66;102505.75;10223117;28;20043;-91
2023/02/13 07:12:13;;;;;;;27.98;12.43;;;;;;;5.15;68.93;102507.47;10230559;28;20117;-90
2023/02/13 07:17:15;;;;;;;25.83;12.25;;;;;;;5.16;68.71;102504.72;10180641;23;20060;-62
2023/02/13 07:22:16;;;;;;;26.83;13.02;;;;;;;5.20;68.83;102501.88;10172593;29;20079;-62
2023/02/13 07:27:17;;;;;;;33.22;12.32;;;;;;;5.27;68.76;102506.78;10162277;29;20048;-62
2023/02/13 07:32:19;;;;;;;44.17;20.02;;;;;;;5.31;69.08;102499.44;10144505;29;20060;-63
2023/02/13 07:37:20;;;;;;;26.92;12.32;;;;;;;5.39;68.79;102502.53;10148577;29;20662;-61
2023/02/13 07:42:22;;;;;;;30.20;13.52;;;;;;;5.39;69.35;102499.88;10149932;29;20072;-64
2023/02/13 07:47:23;;;;;;;27.38;12.63;;;;;;;5.52;69.34;102516.00;10134469;29;20698;-64
2023/02/13 07:52:24;;;;;;;26.23;13.32;;;;;;;5.62;69.59;102519.84;10137776;29;20048;-65
2023/02/13 07:57:26;;;;;;;25.25;12.25;;;;;;;5.73;69.05;102514.75;10135184;29;20053;-64
2023/02/13 08:02:27;;;;;;;30.27;13.73;;;;;;;5.87;69.58;102519.28;10123722;29;20060;-65
2023/02/13 08:07:29;;;;;;;30.73;12.13;;;;;;;5.96;69.23;102517.88;10130198;29;20041;-65
2023/02/13 08:12:31;;;;;;;23.25;11.80;;;;;;;6.15;69.64;102513.16;10129795;29;20107;-66
2023/02/13 08:17:33;;;;;;;28.63;13.20;;;;;;;6.31;69.20;102518.41;10123950;29;20108;-64
2023/02/13 08:22:38;;;;;;;26.95;12.77;;;;;;;6.43;69.75;102511.44;10134019;29;20056;-65
2023/02/13 08:27:39;;;;;;;34.65;13.65;;;;;;;6.63;69.31;102530.72;10130717;29;20123;-64
2023/02/13 08:32:41;;;;;;;28.58;13.63;;;;;;;6.80;69.31;102525.16;10128266;29;20059;-65
2023/02/13 08:37:55;;;;;;;28.05;14.27;;;;;;;6.97;69.10;102520.56;10131340;29;20564;-65
2023/02/13 08:43:03;;;;;;;31.25;13.82;;;;;;;7.11;70.50;102528.56;10129560;29;20544;-63
2023/02/13 08:48:06;;;;;;;31.73;15.20;;;;;;;7.20;70.37;102519.06;10123513;29;20075;-64
2023/02/13 08:53:07;;;;;;;33.05;14.85;;;;;;;7.36;69.91;102519.78;10126217;29;20060;-63
2023/02/13 08:58:09;;;;;;;34.05;14.18;;;;;;;7.54;70.64;102525.72;10127928;29;20071;-65
2023/02/13 09:03:10;;;;;;;36.50;16.33;;;;;;;7.66;70.20;102522.25;10130555;29;20076;-63
2023/02/13 09:08:12;;;;;;;26.90;12.38;;;;;;;7.83;69.88;102520.22;10142051;29;20067;-64
2023/02/13 09:13:14;;;;;;;26.80;14.20;;;;;;;8.00;70.16;102530.66;10148414;29;20139;-63
2023/02/13 09:18:15;;;;;;;24.85;12.05;;;;;;;8.16;70.03;102521.56;10138354;29;20084;-64
2023/02/13 09:23:16;;;;;;;29.65;14.68;;;;;;;8.29;70.40;102517.94;10137001;29;20143;-64
2023/02/13 09:28:18;;;;;;;25.35;12.40;;;;;;;8.49;70.08;102513.00;10143205;29;20470;-64
2023/02/13 09:33:19;;;;;;;22.98;12.20;;;;;;;8.60;69.71;102517.59;10135412;29;20059;-64
2023/02/13 09:38:20;;;;;;;24.83;13.38;;;;;;;8.74;69.10;102504.06;10139225;29;20056;-65
2023/02/13 09:43:53;;;;;;;27.27;15.05;;;;;;;8.85;69.03;102506.84;10137319;29;20507;-64
2023/02/13 09:48:57;;;;;;;27.23;14.20;;;;;;;8.92;68.89;102509.91;10143142;29;20140;-65
2023/02/13 09:54:02;;;;;;;16.77;9.65;;;;;;;9.03;69.12;102518.03;10139628;29;20085;-64
2023/02/13 09:59:34;;;;;;;19.92;10.25;;;;;;;9.19;68.83;102517.78;10133240;29;20116;-65
2023/02/13 10:05:03;;;;;;;21.45;10.48;;;;;;;9.28;68.68;102514.41;10135390;29;20618;-64
2023/02/13 10:10:27;;;;;;;15.30;9.45;;;;;;;9.43;68.34;102514.22;10114326;29;20064;-63
2023/02/13 10:15:39;;;;;;;18.73;9.68;;;;;;;9.59;68.16;102512.09;10132181;29;20123;-65
2023/02/13 10:20:46;;;;;;;15.85;9.18;;;;;;;9.68;67.63;102513.25;10115625;29;20064;-63
2023/02/13 10:25:54;;;;;;;19.40;9.18;;;;;;;9.83;67.29;102514.72;10133696;29;20100;-64
2023/02/13 10:31:03;;;;;;;16.52;9.70;;;;;;;9.91;66.98;102516.84;10118131;29;20040;-65
2023/02/13 10:36:08;;;;;;;16.98;9.07;;;;;;;10.06;66.72;102512.97;10136068;29;20556;-64
2023/02/13 10:41:23;;;;;;;13.80;8.20;;;;;;;10.16;66.49;102510.41;10134100;29;20395;-64
2023/02/13 10:46:42;;;;;;;15.15;8.13;;;;;;;10.25;66.08;102498.13;10137301;29;20602;-64
2023/02/13 10:51:54;;;;;;;17.13;8.65;;;;;;;10.43;65.76;102502.06;10136066;29;20139;-64
2023/02/13 10:57:22;;;;;;;15.20;8.05;;;;;;;10.55;65.16;102491.31;10142619;29;20069;-64
2023/02/13 11:02:29;;;;;;;13.37;8.23;;;;;;;10.75;65.02;102487.84;10135477;29;20709;-65
2023/02/13 11:07:31;;;;;;;13.77;6.97;;;;;;;10.87;65.02;102476.09;10132644;29;20066;-64
2023/02/13 11:12:33;;;;;;;15.57;7.95;;;;;;;10.89;64.66;102468.75;10135944;29;20050;-63
2023/02/13 11:17:38;;;;;;;13.48;7.28;;;;;;;11.07;64.22;102465.53;10139451;29;20056;-63
2023/02/13 11:22:41;;;;;;;17.75;8.05;;;;;;;11.14;63.87;102450.59;10134580;29;20115;-64
2023/02/13 11:27:44;;;;;;;14.63;7.55;;;;;;;11.31;63.53;102438.38;10138965;29;20060;-63
2023/02/13 11:32:57;;;;;;;19.38;7.72;;;;;;;11.43;62.85;102444.56;10135739;29;20059;-64
2023/02/13 11:38:17;;;;;;;11.02;6.78;;;;;;;11.51;62.79;102442.09;10135552;29;20056;-63
2023/02/13 11:43:27;;;;;;;13.15;7.22;;;;;;;11.70;62.41;102425.22;10140105;29;20170;-65
2023/02/13 11:48:29;;;;;;;10.35;5.38;;;;;;;11.88;61.50;102418.22;10135751;29;20056;-64
2023/02/13 11:53:36;;;;;;;12.98;5.47;;;;;;;11.99;61.16;102424.56;10127699;29;20059;-66
2023/02/13 11:58:39;;;;;;;9.77;5.78;;;;;;;12.06;60.64;102421.19;10136300;29;20049;-66
2023/02/13 12:03:40;;;;;;;12.88;5.88;;;;;;;12.24;59.82;102425.94;10134850;29;20053;-65
2023/02/13 12:08:47;;;;;;;11.43;6.95;;;;;;;12.22;59.64;102420.72;10129129;29;20131;-65
2023/02/13 12:13:50;;;;;;;11.20;5.80;;;;;;;12.35;59.15;102425.84;10132589;29;20471;-66
2023/02/13 12:18:57;;;;;;;9.27;6.15;;;;;;;12.37;59.34;102418.47;10128108;29;20071;-63
2023/02/13 12:24:30;;;;;;;12.73;6.78;;;;;;;12.47;58.76;102413.13;10127137;29;20052;-64
2023/02/13 12:29:54;;;;;;;9.63;5.65;;;;;;;12.61;57.96;102409.19;10125431;29;20075;-64
2023/02/13 12:35:32;;;;;;;11.85;5.38;;;;;;;12.72;57.81;102395.56;10125333;29;20071;-64
2023/02/13 12:41:01;;;;;;;11.13;5.75;;;;;;;12.86;56.90;102399.72;10135846;29;20131;-64
2023/02/13 12:46:13;;;;;;;11.25;6.07;;;;;;;12.99;56.60;102380.53;10142396;29;20082;-64
2023/02/13 12:51:33;;;;;;;9.23;5.18;;;;;;;13.08;56.39;102369.72;10146406;29;20503;-65
2023/02/13 12:56:40;;;;;;;7.85;4.90;;;;;;;13.21;55.91;102364.06;10139351;29;20092;-66
2023/02/13 13:01:50;;;;;;;8.88;5.35;;;;;;;13.24;55.78;102361.03;10140195;29;20120;-63
2023/02/13 13:07:22;;;;;;;8.18;4.30;;;;;;;13.40;55.37;102362.34;10118750;29;20079;-65
2023/02/13 13:12:42;;;;;;;8.65;4.53;;;;;;;13.44;55.02;102358.34;10136499;29;20064;-65
2023/02/13 13:17:51;;;;;;;6.80;3.35;;;;;;;13.54;54.72;102359.16;10137181;29;20061;-66
2023/02/13 13:23:00;;;;;;;5.65;3.28;;;;;;;13.66;54.09;102360.72;10142946;29;20139;-64
2023/02/13 13:28:10;;;;;;;4.43;2.85;;;;;;;13.78;53.61;102350.56;10142546;29;20044;-64
2023/02/13 13:33:21;;;;;;;5.57;2.72;;;;;;;13.80;53.37;102348.59;10139806;29;20084;-65
2023/02/13 13:38:51;;;;;;;5.38;3.10;;;;;;;13.94;52.43;102339.16;10142492;29;20449;-64
2023/02/13 13:44:16;;;;;;;5.63;2.13;;;;;;;13.97;52.08;102329.88;10148023;29;20068;-66
2023/02/13 13:49:51;;;;;;;7.72;2.35;;;;;;;14.08;51.57;102324.28;10127119;29;20056;-66
2023/02/13 13:54:59;;;;;;;6.47;2.00;;;;;;;14.21;51.34;102326.63;10123542;29;20116;-66
2023/02/13 14:00:28;;;;;;;3.90;2.20;;;;;;;14.39;50.60;102332.06;10122515;29;20071;-66
2023/02/13 14:05:32;;;;;;;4.63;2.25;;;;;;;14.52;50.22;102320.88;10138370;29;20091;-65
2023/02/13 14:10:33;;;;;;;6.78;2.40;;;;;;;14.64;49.92;102316.97;10138542;29;20053;-63
2023/02/13 14:15:36;;;;;;;6.40;2.45;;;;;;;14.67;49.57;102313.94;10110200;29;20621;-64
2023/02/13 14:20:50;;;;;;;4.85;1.60;;;;;;;14.71;49.12;102312.66;10142251;29;20057;-65
2023/02/13 14:26:16;;;;;;;3.72;1.65;;;;;;;14.75;48.87;102311.31;10136070;29;20500;-65
2023/02/13 14:31:21;;;;;;;4.10;1.52;;;;;;;14.81;49.07;102296.28;10134230;29;20139;-65
2023/02/13 14:36:31;;;;;;;5.30;2.72;;;;;;;14.76;48.39;102304.03;10137707;29;20070;-66
2023/02/13 14:41:43;;;;;;;3.47;2.03;;;;;;;14.67;48.20;102305.81;10134146;29;20064;-65
2023/02/13 14:46:47;;;;;;;2.90;1.60;;;;;;;14.72;47.89;102295.38;10134478;29;20069;-64
2023/02/13 14:51:55;;;;;;;4.70;1.77;;;;;;;14.70;47.56;102288.44;10131029;29;20048;-64
2023/02/13 14:57:28;;;;;;;6.32;1.40;;;;;;;14.82;47.29;102288.03;10138556;29;20052;-66
2023/02/13 15:02:40;;;;;;;3.25;1.60;;;;;;;14.75;47.61;102280.66;10130441;29;20056;-64
2023/02/13 15:07:48;;;;;;;5.55;3.15;;;;;;;14.79;47.49;102274.81;10125364;29;20144;-65
2023/02/13 15:12:58;;;;;;;5.68;1.55;;;;;;;14.83;47.64;102281.63;10127354;29;20103;-65
2023/02/13 15:18:06;;;;;;;2.60;1.58;;;;;;;14.93;48.03;102278.81;10136467;29;20060;-66
2023/02/13 15:23:19;;;;;;;3.90;2.10;;;;;;;15.57;46.97;102270.41;10129910;29;20060;-66
2023/02/13 15:28:23;;;;;;;3.58;1.88;;;;;;;15.45;47.77;102269.84;10128118;29;20799;-65
2023/02/13 15:33:28;;;;;;;5.00;2.10;;;;;;;15.34;47.80;102273.66;10126502;29;20152;-65
2023/02/13 15:38:32;;;;;;;5.28;2.58;;;;;;;15.25;47.82;102277.34;10134873;29;20143;-65
2023/02/13 15:43:41;;;;;;;4.22;2.28;;;;;;;15.16;47.83;102259.34;10137647;29;20052;-65
2023/02/13 15:48:44;;;;;;;4.30;2.38;;;;;;;15.09;48.02;102272.66;10136381;29;20132;-64
2023/02/13 15:53:50;;;;;;;7.30;3.40;;;;;;;14.94;48.04;102264.25;10134731;29;20060;-65
2023/02/13 15:58:54;;;;;;;3.83;2.53;;;;;;;14.78;48.31;102270.38;10129545;29;20048;-64
2023/02/13 16:04:02;;;;;;;4.03;2.88;;;;;;;14.61;48.95;102268.53;10135078;29;20056;-63
2023/02/13 16:09:05;;;;;;;5.53;2.92;;;;;;;14.43;49.06;102277.47;10130892;29;20048;-64
2023/02/13 16:14:16;;;;;;;7.05;2.70;;;;;;;14.28;49.06;102270.91;10130039;29;20048;-65
2023/02/13 16:19:22;;;;;;;7.88;2.58;;;;;;;14.04;49.37;102269.63;10131514;29;20085;-64
2023/02/13 16:24:25;;;;;;;4.53;2.55;;;;;;;13.87;49.49;102273.97;10132857;29;20562;-66
2023/02/13 16:29:27;;;;;;;5.82;3.17;;;;;;;13.71;50.00;102284.59;10132902;29;20112;-64
2023/02/13 16:34:29;;;;;;;6.13;3.00;;;;;;;13.54;49.98;102283.50;10129809;29;20056;-64
2023/02/13 16:39:32;;;;;;;8.77;3.88;;;;;;;13.35;50.49;102294.38;10131200;29;20098;-63
2023/02/13 16:44:33;;;;;;;10.55;4.85;;;;;;;13.15;50.78;102297.13;10129817;29;20069;-63
2023/02/13 16:49:36;;;;;;;6.13;3.95;;;;;;;12.94;50.91;102302.69;10137427;29;20049;-62
2023/02/13 16:54:47;;;;;;;8.38;4.63;;;;;;;12.74;51.27;102298.25;10130821;29;20056;-63
2023/02/13 16:59:54;;;;;;;7.97;3.50;;;;;;;12.60;51.28;102304.94;10134065;29;20108;-63
2023/02/13 17:05:02;;;;;;;10.05;4.20;;;;;;;12.38;51.84;102309.63;10112166;29;20060;-62
2023/02/13 17:10:07;;;;;;;7.97;3.40;;;;;;;12.17;52.08;102319.66;10128965;29;20060;-64
2023/02/13 17:15:14;;;;;;;7.88;3.78;;;;;;;11.93;52.62;102323.53;10133635;29;20052;-62
2023/02/13 17:20:19;;;;;;;5.78;3.58;;;;;;;11.74;53.05;102334.19;10130712;29;20117;-59
2023/02/13 17:25:26;;;;;;;7.88;3.30;;;;;;;11.56;53.09;102331.28;10127169;29;20048;-59
2023/02/13 17:30:31;;;;;;;8.90;3.60;;;;;;;11.35;53.53;102332.13;10130439;29;20052;-59
2023/02/13 17:35:33;;;;;;;12.75;4.38;;;;;;;11.17;53.81;102331.03;10136339;29;20151;-61
2023/02/13 17:40:35;;;;;;;10.38;4.80;;;;;;;10.95;54.74;102335.53;10136242;29;20139;-60
2023/02/13 17:45:37;;;;;;;10.23;4.32;;;;;;;10.77;55.27;102339.78;10136284;29;20048;-60
2023/02/13 17:50:39;;;;;;;7.45;5.38;;;;;;;10.58;55.47;102343.97;10131607;29;20079;-60
2023/02/13 17:55:40;;;;;;;12.15;5.60;;;;;;;10.40;56.07;102346.34;10135973;29;20136;-60
2023/02/13 18:00:42;;;;;;;9.57;5.05;;;;;;;10.23;56.37;102346.84;10132074;29;20183;-60
2023/02/13 18:05:47;;;;;;;8.40;5.70;;;;;;;10.04;56.83;102356.38;10139821;29;20056;-60
2023/02/13 18:10:48;;;;;;;10.68;5.90;;;;;;;9.87;57.16;102356.88;10138564;29;20091;-60
2023/02/13 18:15:50;;;;;;;11.90;5.57;;;;;;;9.72;57.69;102357.13;10136196;29;20083;-60
2023/02/13 18:20:55;;;;;;;15.32;8.85;;;;;;;9.57;57.97;102360.16;10131682;29;20074;-60
2023/02/13 18:26:09;;;;;;;18.77;10.45;;;;;;;9.46;58.49;102358.31;10128883;29;20052;-60
2023/02/13 18:31:10;;;;;;;16.85;8.45;;;;;;;9.28;58.27;102358.75;10133953;29;20052;-60
2023/02/13 18:36:12;;;;;;;11.05;7.20;;;;;;;9.16;58.79;102361.50;10135692;29;20125;-60
2023/02/13 18:41:13;;;;;;;12.80;8.05;;;;;;;9.03;59.07;102357.09;10133226;29;20080;-60
2023/02/13 18:46:15;;;;;;;11.23;6.53;;;;;;;8.89;59.10;102355.44;10128486;29;20135;-61
2023/02/13 18:51:16;;;;;;;11.73;6.38;;;;;;;8.79;59.30;102359.78;10131193;29;20060;-60
2023/02/13 18:56:19;;;;;;;18.55;6.30;;;;;;;8.67;59.14;102363.41;10129106;29;20084;-60
2023/02/13 19:01:21;;;;;;;15.30;7.53;;;;;;;8.51;59.33;102360.97;10132324;29;20076;-60
2023/02/13 19:06:24;;;;;;;16.10;7.30;;;;;;;8.33;60.04;102357.78;10130601;29;20447;-60
2023/02/13 19:11:26;;;;;;;19.25;6.88;;;;;;;8.17;60.82;102359.84;10134705;29;20512;-60
2023/02/13 19:16:30;;;;;;;15.23;6.15;;;;;;;8.12;59.95;102360.19;10138707;29;20495;-60
2023/02/13 19:21:34;;;;;;;14.65;6.38;;;;;;;7.93;61.10;102366.00;10138466;29;20499;-60
2023/02/13 19:26:35;;;;;;;12.32;6.43;;;;;;;7.74;61.16;102364.63;10133083;29;20092;-60
2023/02/13 19:31:37;;;;;;;14.98;6.53;;;;;;;7.68;61.05;102359.72;10125841;29;20135;-60
2023/02/13 19:36:38;;;;;;;15.70;7.82;;;;;;;7.61;61.27;102369.13;10123853;29;20060;-60
2023/02/13 19:41:40;;;;;;;12.55;6.03;;;;;;;7.35;61.47;102370.94;10136251;29;20056;-60
2023/02/13 19:46:42;;;;;;;8.63;5.40;;;;;;;7.24;61.94;102374.31;10126563;29;20044;-60
2023/02/13 19:51:45;;;;;;;9.32;5.28;;;;;;;7.18;62.35;102368.53;10135755;29;20626;-60
2023/02/13 19:56:46;;;;;;;12.75;6.97;;;;;;;7.15;61.98;102374.97;10133577;29;20060;-60
2023/02/13 20:01:48;;;;;;;13.00;6.22;;;;;;;6.95;62.67;102361.09;10141467;29;20112;-60
2023/02/13 20:06:49;;;;;;;11.82;5.40;;;;;;;6.81;62.70;102362.97;10131493;29;20055;-60
2023/02/13 20:11:51;;;;;;;12.40;5.65;;;;;;;6.60;62.88;102373.28;10117095;29;20119;-59
2023/02/13 20:16:52;;;;;;;9.95;6.03;;;;;;;6.47;63.40;102374.06;10131521;29;20542;-60
2023/02/13 20:21:54;;;;;;;11.68;6.28;;;;;;;6.34;64.23;102374.00;10125565;29;20072;-60
2023/02/13 20:26:57;;;;;;;13.93;6.93;;;;;;;6.40;64.19;102374.53;10131478;29;20041;-59
2023/02/13 20:31:59;;;;;;;13.55;7.38;;;;;;;6.41;63.92;102371.78;10132239;29;20052;-59
2023/02/13 20:37:00;;;;;;;14.07;6.65;;;;;;;6.33;63.90;102372.25;10123839;29;20048;-60
2023/02/13 20:42:02;;;;;;;21.83;11.50;;;;;;;6.35;64.21;102381.03;10121942;29;20085;-60
2023/02/13 20:47:03;;;;;;;15.38;8.88;;;;;;;6.21;64.41;102381.06;10132552;29;20500;-60
2023/02/13 20:52:05;;;;;;;13.15;6.97;;;;;;;6.13;63.75;102380.69;10134744;29;20139;-60
2023/02/13 20:57:06;;;;;;;20.08;9.75;;;;;;;6.05;64.27;102383.84;10132545;29;20067;-60
2023/02/13 21:02:09;;;;;;;19.92;9.10;;;;;;;6.07;64.71;102384.59;10139332;29;20052;-60
2023/02/13 21:07:10;;;;;;;21.08;9.05;;;;;;;5.90;64.42;102376.75;10113676;29;20064;-60
2023/02/13 21:12:11;;;;;;;47.78;19.45;;;;;;;5.80;65.14;102376.47;10124883;29;20079;-60
2023/02/13 21:17:13;;;;;;;36.70;16.15;;;;;;;5.80;64.55;102373.81;10143109;29;20111;-60
2023/02/13 21:22:14;;;;;;;23.27;11.40;;;;;;;5.84;64.13;102369.97;10138392;29;20072;-60
2023/02/13 21:27:16;;;;;;;15.00;7.80;;;;;;;5.81;64.66;102374.69;10127536;29;20053;-60
2023/02/13 21:32:17;;;;;;;17.33;8.77;;;;;;;5.75;65.30;102366.09;10134009;29;20143;-60
2023/02/13 21:37:19;;;;;;;14.80;8.77;;;;;;;5.71;64.75;102369.06;10138319;29;20055;-60
2023/02/13 21:42:20;;;;;;;15.30;9.10;;;;;;;5.69;64.39;102370.97;10138561;29;20072;-60
2023/02/13 21:47:21;;;;;;;19.08;9.77;;;;;;;5.62;65.04;102370.44;10141147;29;20051;-60
2023/02/13 21:52:23;;;;;;;14.30;7.95;;;;;;;5.51;65.37;102363.13;10140410;29;20071;-61
2023/02/13 21:57:25;;;;;;;12.00;7.80;;;;;;;5.48;65.49;102349.94;10141686;29;20108;-60
2023/02/13 22:02:27;;;;;;;16.75;8.30;;;;;;;5.47;64.78;102350.03;10137935;29;20056;-60
2023/02/13 22:07:29;;;;;;;18.33;9.93;;;;;;;5.38;64.93;102350.63;10145664;29;20057;-61
2023/02/13 22:12:30;;;;;;;19.92;9.23;;;;;;;5.32;65.23;102350.03;10144189;29;20052;-60
2023/02/13 22:17:35;;;;;;;15.63;7.85;;;;;;;5.23;65.46;102345.22;10136620;29;20080;-60
2023/02/13 22:22:37;;;;;;;14.65;8.35;;;;;;;5.14;65.56;102351.97;10135116;29;20052;-60
2023/02/13 22:27:38;;;;;;;16.73;8.50;;;;;;;5.12;65.28;102350.38;10130331;29;20551;-60
2023/02/13 22:32:40;;;;;;;16.40;9.45;;;;;;;4.98;65.90;102353.84;10134050;29;20397;-60
2023/02/13 22:37:41;;;;;;;13.93;7.60;;;;;;;4.97;65.86;102349.44;10139615;29;20313;-60
2023/02/13 22:42:43;;;;;;;21.70;8.77;;;;;;;4.88;65.96;102347.34;10131245;29;20060;-60
2023/02/13 22:47:44;;;;;;;14.75;8.23;;;;;;;4.84;65.79;102343.13;10140674;29;20051;-60
2023/02/13 22:52:46;;;;;;;12.27;6.75;;;;;;;4.77;65.69;102340.81;10139725;29;20525;-60
2023/02/13 22:57:52;;;;;;;13.77;7.40;;;;;;;4.77;65.88;102339.97;10137330;29;20049;-60
2023/02/13 23:02:54;;;;;;;15.43;8.32;;;;;;;4.70;66.07;102344.78;10140225;29;20044;-60
2023/02/13 23:07:55;;;;;;;12.10;7.05;;;;;;;4.65;65.81;102351.34;10135375;29;20128;-60
2023/02/13 23:12:56;;;;;;;14.68;7.25;;;;;;;4.57;66.11;102354.44;10141054;29;20043;-60
2023/02/13 23:18:13;;;;;;;16.40;7.45;;;;;;;4.33;66.60;102346.88;10136144;29;20040;-60
2023/02/13 23:23:14;;;;;;;13.70;8.02;;;;;;;4.32;66.74;102350.47;10136807;29;20052;-60
2023/02/13 23:28:16;;;;;;;16.50;7.78;;;;;;;4.32;66.89;102350.47;10140157;29;20052;-60
2023/02/13 23:33:17;;;;;;;13.27;7.82;;;;;;;4.33;66.24;102349.53;10139062;29;20195;-60
2023/02/13 23:38:19;;;;;;;15.63;8.10;;;;;;;4.34;66.71;102342.41;10137661;29;20083;-59
2023/02/13 23:43:21;;;;;;;14.77;8.43;;;;;;;4.34;66.49;102348.63;10137460;29;20104;-59
2023/02/13 23:48:22;;;;;;;22.52;10.60;;;;;;;4.32;66.22;102354.94;10136678;29;20060;-59
2023/02/13 23:53:23;;;;;;;21.95;10.45;;;;;;;4.30;66.43;102346.19;10135065;29;20112;-59
2023/02/13 23:58:25;;;;;;;25.38;11.50;;;;;;;4.27;66.36;102354.34;10136686;29;20080;-59
